createdAt,value
2023-03-21T00:02:22.440Z,7.6
2023-03-21T00:12:22.837Z,7.5
2023-03-21T00:22:22.375Z,7.3
2023-03-21T00:32:22.402Z,7.1
2023-03-21T00:42:22.394Z,6.8
2023-03-21T00:52:38.011Z,6.7
2023-03-21T01:02:22.417Z,6.7
2023-03-21T01:12:22.367Z,6.8
2023-03-21T01:22:22.300Z,6.8
2023-03-21T01:32:22.333Z,6.7
2023-03-21T01:42:22.320Z,6.6
2023-03-21T01:52:35.386Z,6.6
2023-03-21T02:02:22.721Z,6.5
2023-03-21T02:12:22.299Z,6.5
2023-03-21T02:22:22.267Z,6.5
2023-03-21T02:32:34.903Z,6.4
2023-03-21T02:42:22.288Z,6.2
2023-03-21T02:52:37.401Z,6.2
2023-03-21T03:02:22.256Z,6.2
2023-03-21T03:12:22.259Z,6.2
2023-03-21T03:22:22.217Z,6.3
2023-03-21T03:32:22.253Z,6.1
2023-03-21T03:42:28.405Z,6.1
2023-03-21T03:52:22.610Z,6.1
2023-03-21T04:02:22.294Z,6.2
2023-03-21T04:12:22.219Z,5.9
2023-03-21T04:22:22.163Z,5.7
2023-03-21T04:32:22.184Z,5.5
2023-03-21T04:42:22.202Z,5.3
2023-03-21T04:52:24.316Z,5.2
2023-03-21T05:02:22.139Z,5.3
2023-03-21T05:12:22.133Z,5.3
2023-03-21T05:22:22.125Z,5.2
2023-03-21T05:32:22.145Z,5
2023-03-21T05:42:22.141Z,4.9
2023-03-21T05:52:22.099Z,5
2023-03-21T06:02:22.154Z,5
2023-03-21T06:12:22.563Z,5.1
2023-03-21T06:22:22.076Z,5.3
2023-03-21T06:32:22.083Z,5.5
2023-03-21T06:42:22.108Z,6
2023-03-21T06:52:22.460Z,6.8
2023-03-21T07:02:22.090Z,8.7
2023-03-21T07:12:22.071Z,10.9
2023-03-21T07:22:22.038Z,11.5
2023-03-21T07:32:22.041Z,12.5
2023-03-21T07:42:22.022Z,13.7
2023-03-21T07:52:22.403Z,14.8
2023-03-21T08:02:22.088Z,15.4
2023-03-21T08:12:22.001Z,15.9
2023-03-21T08:22:21.954Z,15.3
2023-03-21T08:32:21.967Z,14.7
2023-03-21T08:42:21.958Z,14.7
2023-03-21T08:52:21.905Z,15.2
2023-03-21T09:02:22.323Z,15.4
2023-03-21T09:12:39.668Z,15.7
2023-03-21T09:22:21.869Z,16.1
2023-03-21T09:32:21.844Z,16.1
2023-03-21T09:42:21.860Z,16.2
2023-03-21T09:52:22.232Z,16.2
2023-03-21T10:02:21.827Z,16.7
2023-03-21T10:12:21.814Z,17.5
2023-03-21T10:22:21.775Z,17.9
2023-03-21T10:32:21.776Z,18
2023-03-21T10:42:21.785Z,19.8
2023-03-21T10:52:21.708Z,21.1
2023-03-21T11:02:21.748Z,20.9
2023-03-21T11:12:21.672Z,21.8
2023-03-21T11:22:21.645Z,22.6
2023-03-21T11:32:21.686Z,24.5
2023-03-21T11:42:21.649Z,24.4
2023-03-21T11:52:21.612Z,24
2023-03-21T12:02:21.649Z,23.2
2023-03-21T12:12:26.981Z,22.3
2023-03-21T12:22:21.546Z,21.2
2023-03-21T12:32:21.551Z,21.4
2023-03-21T12:42:21.547Z,22.5
2023-03-21T12:52:21.924Z,22.9
2023-03-21T13:02:21.520Z,23.9
2023-03-21T13:12:21.475Z,23
2023-03-21T13:22:21.476Z,23.5
2023-03-21T13:32:22.018Z,24
2023-03-21T13:42:21.401Z,22.8
2023-03-21T13:52:21.396Z,21.3
2023-03-21T14:02:21.414Z,20.1
2023-03-21T14:12:21.394Z,19.3
2023-03-21T14:22:21.325Z,19.3
2023-03-21T14:32:21.344Z,18.9
2023-03-21T14:42:21.327Z,18.8
2023-03-21T14:52:21.298Z,18.8
2023-03-21T15:02:21.344Z,18.8
2023-03-21T15:12:21.280Z,18.8
2023-03-21T15:22:21.242Z,18.9
2023-03-21T15:32:21.239Z,18.9
2023-03-21T15:42:21.217Z,19.1
2023-03-21T15:52:21.192Z,18.7
2023-03-21T16:02:21.722Z,18.5
2023-03-21T16:12:21.184Z,18.2
2023-03-21T16:22:21.125Z,17.9
2023-03-21T16:32:21.147Z,17.7
2023-03-21T16:42:21.150Z,17.5
2023-03-21T16:52:21.121Z,17.4
2023-03-21T17:02:21.112Z,17.1
2023-03-21T17:12:21.086Z,17
2023-03-21T17:22:21.030Z,16.8
2023-03-21T17:32:21.050Z,16.8
2023-03-21T17:42:21.052Z,16.7
2023-03-21T17:52:20.982Z,16.5
2023-03-21T18:02:21.010Z,16.6
2023-03-21T18:12:21.005Z,16.5
2023-03-21T18:22:20.943Z,16.5
2023-03-21T18:32:21.011Z,16.4
2023-03-21T18:42:22.059Z,16.3
2023-03-21T18:52:20.909Z,16.1
2023-03-21T19:02:20.878Z,16
2023-03-21T19:12:21.260Z,15.8
2023-03-21T19:22:20.836Z,15.6
2023-03-21T19:32:20.878Z,15.5
2023-03-21T19:42:20.845Z,15
2023-03-21T19:52:20.793Z,14.6
2023-03-21T20:02:35.187Z,14.2
2023-03-21T20:12:20.801Z,14.3
2023-03-21T20:22:31.863Z,14.1
2023-03-21T20:32:20.783Z,13.8
2023-03-21T20:42:20.753Z,13.5
2023-03-21T20:52:57.892Z,13.1
2023-03-21T21:02:20.758Z,12.8
2023-03-21T21:12:20.755Z,12.7
2023-03-21T21:22:20.711Z,12.7
2023-03-21T21:32:20.744Z,12.6
2023-03-21T21:42:20.691Z,12.4
2023-03-21T21:52:21.107Z,12.4
2023-03-21T22:02:20.691Z,12.2
2023-03-21T22:12:20.674Z,12
2023-03-21T22:22:20.630Z,11.8
2023-03-21T22:32:20.608Z,11.6
2023-03-21T22:42:20.677Z,11.3
2023-03-21T22:52:21.021Z,11.1
2023-03-21T23:02:20.627Z,10.8
2023-03-21T23:12:20.577Z,10.7
2023-03-21T23:22:20.553Z,10.6
2023-03-21T23:32:20.583Z,10.5
2023-03-21T23:42:20.554Z,10.3
2023-03-21T23:52:20.501Z,10.2
